x

Sentry Shoal (46131) Wave Buoy

7:00 - Wed 1st Apr 2015 All times are PDT. -7 hours from GMT.

  • Sig Wave height 0.3ft
  • Peak Period 2s
  • Wind
    9mph, 11mph gusts
  • Sea Temp 50°f
  • Luft Temp 50°f
  • Sea Pressure 1024.6mb
  • Sentry Shoal
  • Sentry Shoal

More Historic Weather Station data

Upgrade to MSW Pro to gain access to the past 30 days of data for over 8000 Wavebouys and Weather Stations around the globe.

Join Pro

Comparision Forecast

View Surf forecast
   
Mi 04/01 7:00 0.3ft 2s 9 11 mph 1024.6mb 50f 50f
6:00  -  7s 7 11 mph 1024.6mb 50f 50f
5:00  -  4s 4 7 mph 1024.7mb 50f 49f
4:00  -  7s 2 4 mph 1024.7mb 51f 50f
3:00  -  4s 4
mph
1025mb 52f 48f
2:00 0.3ft 3s 2
mph
1025.2mb 52f 48f
1:00  -  6s 2
mph
1025.4mb 51f 47f
12:00  -  3s 2 4 mph 1025.7mb 50f 45f
11:00 0.3ft 2s 4 7 mph 1025.6mb 50f 44f
10:00 0.3ft 5s 7 9 mph 1025.3mb 49f 44f
9:00 0.3ft 2s 4 7 mph 1024.7mb 49f 43f
8:00 0.3ft 2s 4 7 mph 1024.2mb 49f 43f
7:00 0.3ft 2s 7 9 mph 1023.5mb 49f 43f
6:00 0.3ft 2s 7 9 mph 1023.1mb 49f 43f
5:00 0.3ft 4s 7 9 mph 1022.8mb 49f 44f
4:00 0.3ft 2s 4 7 mph 1022.4mb 49f 44f
3:00 0.3ft 2s 4 7 mph 1022.2mb 49f 44f
2:00 0.3ft 2s 4 7 mph 1022.1mb 49f 45f
1:00 0.7ft 2s 2 4 mph 1022mb 49f 45f
12:00 1ft 3s 9 11 mph 1021.7mb 49f 45f
Di 03/31 11:00 1.3ft 3s 7 9 mph 1021.3mb 49f 45f
10:00 0.7ft 2s 18 22 mph 1020.8mb 49f 45f
9:00 0.3ft 2s 2
mph
1020.2mb 49f 47f
8:00 0.3ft 7s 2
mph
1019.5mb 49f 47f
7:00  -  8s 9
mph
1018.9mb 50f 48f
6:00 0.3ft 7s 9
mph
1018.7mb 50f 48f
5:00 0.3ft 2s 4 9 mph 1018.4mb 49f 48f
3:00 0.3ft 4s 7 9 mph 1018mb 49f 49f
2:00  -  4s 7 9 mph 1017.9mb 50f 49f
1:00 0.3ft 5s 7
mph
1017.8mb 50f 48f
12:00 0.3ft 2s 4
mph
1017.4mb 51f 48f
11:00 0.3ft 2s 2 4 mph 1016.9mb 50f 47f
10:00 0.3ft 2s 2
mph
1016.2mb 49f 46f
9:00 0.7ft 2s  -  2 mph 1015.3mb 49f 47f
8:00 0.7ft 2s 7 9 mph 1014.7mb 49f 45f
7:00 0.7ft 3s 7 9 mph 1013.8mb 49f 45f
6:00 1ft 3s 7 11 mph 1013mb 49f 46f
5:00 1.3ft 3s 13 18 mph 1011.9mb 49f 46f
4:00 1.3ft 3s 18 22 mph 1010.8mb 49f 46f
3:00 1.3ft 3s 18 20 mph 1009.9mb 49f 46f
2:00 1.3ft 3s 20 22 mph 1009.8mb 49f 46f
1:00 1.3ft 3s 16 18 mph 1009.8mb 49f 46f
12:00 1.6ft 3s 16 18 mph 1009.7mb 49f 46f
Mo 03/30 11:00 1.6ft 3s 18 22 mph 1009.5mb 49f 46f
10:00 1.3ft 2s 16 18 mph 1009.4mb 49f 47f
9:00 1.3ft 3s 16 20 mph 1009.2mb 49f 48f
8:00 2ft 3s 16 18 mph 1009mb 49f 48f
7:00 2.5ft 4s 11 16 mph 1009.2mb 49f 50f
6:00 3.5ft 4s 16 20 mph 1008.7mb 49f 51f
5:00 3.5ft 4s 16 20 mph 1009.1mb 49f 52f
4:00 4.5ft 5s 25 29 mph 1009.4mb 49f 53f
3:00 4.5ft 5s 27 34 mph 1010.1mb 49f 53f
2:00 4.5ft 5s 27 31 mph 1011.1mb 49f 52f
1:00 4.5ft 5s 20 25 mph 1012.1mb 49f 52f
12:00 4.5ft 5s 20 27 mph 1012.8mb 49f 52f
11:00 4.5ft 5s 22 29 mph 1012.8mb 49f 51f
10:00 4ft 5s 20 25 mph 1012.8mb 49f 51f
9:00 4ft 4s 27 34 mph 1012.8mb 49f 51f
8:00 4ft 5s 25 34 mph 1012.9mb 49f 50f
7:00 3.5ft 4s 27 31 mph 1013mb 49f 51f
6:00 2.5ft 4s 22 25 mph 1013.4mb 49f 50f
5:00 1.6ft 3s 20 22 mph 1014.6mb 49f 49f
4:00 1.3ft 3s 11 16 mph 1015.6mb 49f 49f
3:00 1.3ft 3s 13 18 mph 1016.3mb 49f 49f
2:00 1ft 2s 11 13 mph 1017mb 49f 49f
1:00 1ft 2s 11 13 mph 1017.8mb 49f 49f
12:00 0.7ft 3s 13 16 mph 1018.4mb 49f 49f
So 03/29 11:00 0.3ft 2s 7 9 mph 1019.3mb 49f 49f
10:00 0.7ft 2s 7
mph
1020.1mb 49f 49f
9:00 0.7ft 4s 7 9 mph 1020.3mb 49f 50f
8:00 1ft 3s 9
mph
1020.2mb 49f 50f
7:00 1.3ft 4s 11 13 mph 1020.4mb 49f 50f
6:00 1.3ft 3s 13 16 mph 1020.9mb 49f 50f
5:00 1.3ft 3s 9
mph
1021.3mb 49f 50f
4:00 1.6ft 3s 13
mph
1021.2mb 49f 50f
3:00 2ft 5s 18 20 mph 1021.1mb 49f 50f
2:00 2.5ft 5s 13 16 mph 1021.2mb 49f 50f
1:00 2.5ft 5s 9 11 mph 1021.5mb 49f 50f
12:00 3ft 4s 13 16 mph 1021.1mb 49f 49f
11:00 4ft 5s 13 18 mph 1020.5mb 49f 49f
10:00 4.5ft 5s 18 22 mph 1019.8mb 49f 49f
9:00 5.5ft 6s 22 27 mph 1018.8mb 49f 49f
8:00 6.5ft 7s 25 31 mph 1018.2mb 49f 49f
7:00 7ft 6s 29 34 mph 1017.2mb 49f 49f
6:00 6.5ft 6s 31 38 mph 1016.7mb 49f 50f
5:00 6ft 6s 31 40 mph 1017mb 49f 50f
4:00 5.5ft 6s 20 25 mph 1017.8mb 49f 50f